createdAt,value
2022-09-28T00:00:24.227Z,4.15
2022-09-28T00:05:27.136Z,4.30
2022-09-28T00:10:29.805Z,4.28
2022-09-28T00:15:32.317Z,4.75
2022-09-28T00:20:34.877Z,5.18
2022-09-28T00:25:37.826Z,5.03
2022-09-28T00:30:40.385Z,3.95
2022-09-28T00:35:43.695Z,6.75
2022-09-28T00:40:46.331Z,6.35
2022-09-28T00:46:06.868Z,4.10
2022-09-28T00:51:12.638Z,5.55
2022-09-28T00:56:19.694Z,5.60
2022-09-28T01:01:23.282Z,5.22
2022-09-28T01:06:34.175Z,9.02
2022-09-28T01:11:38.864Z,6.22
2022-09-28T01:17:01.326Z,6.43
2022-09-28T01:22:34.217Z,5.72
2022-09-28T01:27:44.916Z,7.45
2022-09-28T01:32:54.762Z,9.70
2022-09-28T01:38:06.173Z,6.28
2022-09-28T01:43:18.076Z,4.93
2022-09-28T01:48:29.421Z,5.88
2022-09-28T01:53:46.981Z,4.93
2022-09-28T01:59:04.200Z,5.95
2022-09-28T02:04:21.887Z,5.20
2022-09-28T02:09:40.648Z,4.38
2022-09-28T02:14:47.294Z,6.97
2022-09-28T02:19:50.112Z,7.43
2022-09-28T02:25:03.537Z,4.95
2022-09-28T02:30:07.858Z,4.05
2022-09-28T02:35:16.833Z,4.15
2022-09-28T02:40:23.868Z,4.72
2022-09-28T02:45:36.255Z,5.43
2022-09-28T02:51:07.963Z,3.80
2022-09-28T02:56:39.310Z,4.43
2022-09-28T03:02:12.199Z,5.40
2022-09-28T03:07:31.342Z,5.93
2022-09-28T03:12:36.170Z,4.57
2022-09-28T03:17:38.737Z,6.18
2022-09-28T03:22:41.615Z,7.53
2022-09-28T03:27:45.218Z,4.80
2022-09-28T03:32:58.433Z,4.65
2022-09-28T03:38:02.556Z,6.78
2022-09-28T03:43:07.900Z,4.50
2022-09-28T03:48:10.611Z,5.05
2022-09-28T03:53:13.264Z,4.50
2022-09-28T03:58:16.109Z,3.65
2022-09-28T04:03:18.697Z,4.30
2022-09-28T04:08:21.354Z,5.70
2022-09-28T04:13:25.324Z,4.28
2022-09-28T04:18:28.215Z,5.03
2022-09-28T04:23:51.839Z,5.68
2022-09-28T04:29:13.074Z,5.35
2022-09-28T04:34:20.269Z,7.35
2022-09-28T04:39:22.924Z,5.30
2022-09-28T04:44:28.793Z,9.68
2022-09-28T04:49:38.723Z,5.28
2022-09-28T04:54:47.346Z,6.95
2022-09-28T04:59:49.943Z,4.07
2022-09-28T05:04:55.431Z,6.80
2022-09-28T05:10:13.721Z,5.25
2022-09-28T05:15:16.774Z,9.15
2022-09-28T05:20:19.626Z,6.47
2022-09-28T05:25:24.162Z,5.20
2022-09-28T05:30:47.164Z,5.93
2022-09-28T05:36:14.448Z,5.75
2022-09-28T05:41:18.404Z,5.03
2022-09-28T05:46:22.660Z,5.45
2022-09-28T05:51:26.420Z,6.72
2022-09-28T05:56:31.003Z,7.18
2022-09-28T06:01:33.868Z,5.93
2022-09-28T06:06:38.890Z,7.95
2022-09-28T06:11:41.502Z,7.38
2022-09-28T06:16:53.665Z,5.93
2022-09-28T06:21:59.156Z,5.22
2022-09-28T06:27:02.138Z,6.00
2022-09-28T06:32:05.044Z,5.60
2022-09-28T06:37:07.995Z,5.25
2022-09-28T06:42:11.793Z,5.72
2022-09-28T06:47:35.325Z,6.50
2022-09-28T06:52:57.408Z,6.85
2022-09-28T06:58:17.381Z,6.75
2022-09-28T07:03:22.093Z,26.75
2022-09-28T07:08:36.629Z,10.43
2022-09-28T07:13:57.821Z,12.47
2022-09-28T07:19:00.575Z,6.97
2022-09-28T07:24:03.177Z,4.97
2022-09-28T07:29:31.559Z,8.35
2022-09-28T07:34:58.748Z,6.00
2022-09-28T07:40:41.692Z,6.07
2022-09-28T07:45:52.718Z,7.45
2022-09-28T07:50:57.398Z,8.25
2022-09-28T07:56:24.186Z,7.20
2022-09-28T08:01:45.359Z,7.95
2022-09-28T08:06:49.813Z,5.95
2022-09-28T08:11:54.968Z,6.10
2022-09-28T08:17:16.722Z,5.65
2022-09-28T08:22:22.730Z,4.43
2022-09-28T08:27:27.778Z,6.43
2022-09-28T08:32:31.256Z,4.22
2022-09-28T08:37:55.607Z,5.25
2022-09-28T08:43:40.484Z,5.50
2022-09-28T08:49:26.853Z,6.50
2022-09-28T08:54:57.861Z,4.35
2022-09-28T09:00:19.429Z,5.78
2022-09-28T09:05:39.641Z,5.68
2022-09-28T09:11:02.909Z,6.53
2022-09-28T09:16:30.448Z,5.50
2022-09-28T09:21:54.709Z,4.63
2022-09-28T09:27:37.706Z,6.95
2022-09-28T09:33:24.197Z,8.93
2022-09-28T09:38:55.969Z,16.13
2022-09-28T09:44:40.897Z,10.27
2022-09-28T09:50:15.128Z,8.40
2022-09-28T09:55:30.162Z,13.48
2022-09-28T10:00:54.436Z,7.40
2022-09-28T10:06:30.375Z,4.95
2022-09-28T10:11:37.770Z,3.00
2022-09-28T10:16:45.205Z,4.22
2022-09-28T10:21:55.057Z,4.20
2022-09-28T10:27:15.631Z,2.55
2022-09-28T10:32:21.493Z,3.58
2022-09-28T10:37:25.427Z,4.20
2022-09-28T10:42:38.795Z,3.67
2022-09-28T10:47:44.858Z,3.72
2022-09-28T10:52:49.859Z,2.92
2022-09-28T10:58:36.332Z,3.50
2022-09-28T11:04:00.673Z,2.90
2022-09-28T11:09:28.417Z,3.55
2022-09-28T11:14:42.774Z,6.03
2022-09-28T11:19:56.178Z,2.90
2022-09-28T11:25:16.943Z,3.63
2022-09-28T11:30:24.792Z,3.85
2022-09-28T11:36:02.203Z,3.30
2022-09-28T11:41:32.878Z,3.88
2022-09-28T11:46:52.214Z,3.92
2022-09-28T11:52:00.004Z,5.30
2022-09-28T11:57:04.865Z,3.05
2022-09-28T12:02:22.260Z,4.35
2022-09-28T12:12:40.335Z,7.63
2022-09-28T12:17:52.474Z,4.60
2022-09-28T12:23:09.995Z,4.43
2022-09-28T12:28:30.650Z,5.07
2022-09-28T12:33:33.392Z,6.65
2022-09-28T12:39:23.996Z,3.28
2022-09-28T12:44:58.633Z,5.28
2022-09-28T12:55:37.551Z,4.20
2022-09-28T13:01:19.222Z,4.07
2022-09-28T13:06:56.877Z,3.58
2022-09-28T13:12:14.149Z,4.22
2022-09-28T13:17:49.490Z,3.95
2022-09-28T13:23:15.262Z,3.60
2022-09-28T13:28:26.266Z,5.38
2022-09-28T13:33:36.101Z,3.42
2022-09-28T13:38:49.883Z,5.78
2022-09-28T13:44:34.117Z,3.88
2022-09-28T13:49:56.651Z,4.93
2022-09-28T13:55:02.175Z,3.95
2022-09-28T14:00:15.954Z,4.15
2022-09-28T14:05:27.337Z,5.53
2022-09-28T14:11:21.512Z,7.22
2022-09-28T14:16:32.706Z,3.90
2022-09-28T14:21:59.294Z,3.67
2022-09-28T14:27:10.621Z,7.35
2022-09-28T14:32:13.080Z,4.35
2022-09-28T14:37:38.901Z,3.13
2022-09-28T14:43:20.793Z,5.45
2022-09-28T14:48:49.217Z,7.53
2022-09-28T14:54:00.420Z,9.05
2022-09-28T14:59:03.210Z,3.93
2022-09-28T15:04:11.800Z,4.22
2022-09-28T15:09:26.500Z,4.28
2022-09-28T15:14:32.997Z,4.35
2022-09-28T15:20:09.585Z,5.57
2022-09-28T15:25:20.147Z,3.83
2022-09-28T15:30:26.260Z,5.28
2022-09-28T15:35:28.980Z,5.90
2022-09-28T15:40:34.717Z,7.47
2022-09-28T15:45:40.054Z,7.75
2022-09-28T15:51:12.161Z,8.48
2022-09-28T15:56:14.977Z,6.47
2022-09-28T16:01:24.311Z,5.38
2022-09-28T16:06:26.969Z,8.48
2022-09-28T16:11:39.248Z,4.22
2022-09-28T16:16:46.932Z,7.47
2022-09-28T16:21:52.729Z,6.40
2022-09-28T16:27:02.712Z,4.72
2022-09-28T16:32:27.561Z,5.45
2022-09-28T16:37:32.085Z,4.05
2022-09-28T16:42:35.320Z,5.70
2022-09-28T16:47:37.892Z,5.50
2022-09-28T16:53:00.109Z,4.88
2022-09-28T16:58:04.884Z,6.28
2022-09-28T17:03:16.208Z,8.23
2022-09-28T17:08:22.291Z,5.67
2022-09-28T17:13:31.555Z,7.95
2022-09-28T17:18:37.520Z,4.75
2022-09-28T17:23:40.699Z,7.30
2022-09-28T17:28:43.351Z,5.53
2022-09-28T17:33:46.190Z,8.07
2022-09-28T17:38:49.597Z,6.15
2022-09-28T17:43:52.335Z,6.50
2022-09-28T17:48:59.555Z,8.32
2022-09-28T17:54:02.632Z,6.38
2022-09-28T17:59:17.065Z,6.00
2022-09-28T18:04:50.222Z,6.20
2022-09-28T18:09:45.027Z,5.57
2022-09-28T18:14:47.575Z,7.03
2022-09-28T18:19:51.020Z,6.15
2022-09-28T18:24:55.336Z,5.93
2022-09-28T18:29:57.867Z,5.80
2022-09-28T18:35:00.404Z,7.07
2022-09-28T18:40:03.284Z,5.57
2022-09-28T18:45:08.559Z,9.07
2022-09-28T18:50:12.971Z,7.57
2022-09-28T18:55:16.089Z,6.10
2022-09-28T19:00:18.696Z,8.52
2022-09-28T19:05:21.476Z,5.60
2022-09-28T19:10:24.021Z,7.03
2022-09-28T19:15:26.630Z,5.55
2022-09-28T19:20:29.254Z,5.25
2022-09-28T19:25:32.341Z,6.03
2022-09-28T19:30:35.212Z,8.82
2022-09-28T19:35:37.833Z,6.30
2022-09-28T19:40:40.574Z,4.78
2022-09-28T19:45:43.398Z,9.70
2022-09-28T19:50:56.426Z,6.05
2022-09-28T19:56:03.222Z,7.60
2022-09-28T20:01:06.987Z,8.27
2022-09-28T20:06:11.825Z,14.13
2022-09-28T20:11:18.674Z,11.23
2022-09-28T20:16:24.560Z,7.43
2022-09-28T20:21:28.017Z,9.55
2022-09-28T20:26:35.793Z,8.20
2022-09-28T20:31:38.516Z,9.32
2022-09-28T20:36:42.510Z,12.57
2022-09-28T20:41:46.842Z,9.57
2022-09-28T20:46:52.613Z,13.90
2022-09-28T20:51:55.163Z,11.90
2022-09-28T20:56:57.793Z,15.13
2022-09-28T21:02:00.531Z,12.18
2022-09-28T21:07:03.138Z,14.20
2022-09-28T21:12:05.932Z,9.80
2022-09-28T21:17:08.498Z,14.80
2022-09-28T21:22:11.283Z,12.63
2022-09-28T21:27:13.833Z,8.90
2022-09-28T21:32:16.475Z,9.85
2022-09-28T21:37:18.979Z,12.80
2022-09-28T21:42:21.657Z,9.73
2022-09-28T21:47:24.355Z,9.00
2022-09-28T21:52:27.106Z,8.00
2022-09-28T21:57:29.635Z,9.40
2022-09-28T22:02:33.904Z,11.05
2022-09-28T22:07:37.173Z,11.57
2022-09-28T22:12:39.846Z,9.32
2022-09-28T22:17:42.457Z,9.43
2022-09-28T22:22:51.087Z,8.95
2022-09-28T22:27:53.738Z,13.20
2022-09-28T22:32:56.397Z,11.82
2022-09-28T22:37:59.913Z,10.35
2022-09-28T22:43:02.556Z,10.75
2022-09-28T22:48:05.168Z,9.63
2022-09-28T22:53:08.101Z,9.68
2022-09-28T22:58:11.225Z,9.05
2022-09-28T23:03:14.015Z,12.45
2022-09-28T23:08:16.552Z,10.90
2022-09-28T23:13:19.497Z,10.32
2022-09-28T23:18:22.373Z,12.63
2022-09-28T23:23:25.075Z,15.38
2022-09-28T23:28:27.641Z,10.95
2022-09-28T23:33:30.217Z,13.45
2022-09-28T23:38:32.791Z,14.32
2022-09-28T23:43:36.465Z,10.05
2022-09-28T23:48:39.258Z,10.65
2022-09-28T23:53:43.348Z,9.77
2022-09-28T23:58:46.029Z,11.00
